sensor_id;sensor_type;location;lat;lon;timestamp;pressure;altitude;pressure_sealevel;temperature;humidity
46087;BME280;31824;49.648;8.640;2023-04-12T00:00:45;99754.16;;;10.51;100.00
46087;BME280;31824;49.648;8.640;2023-04-12T00:03:48;99733.25;;;10.31;100.00
46087;BME280;31824;49.648;8.640;2023-04-12T00:06:51;99745.84;;;10.77;100.00
46087;BME280;31824;49.648;8.640;2023-04-12T00:09:56;99742.75;;;10.50;100.00
46087;BME280;31824;49.648;8.640;2023-04-12T00:12:57;99734.47;;;10.35;100.00
46087;BME280;31824;49.648;8.640;2023-04-12T00:15:59;99737.34;;;10.38;100.00
46087;BME280;31824;49.648;8.640;2023-04-12T00:19:01;99740.63;;;10.36;100.00
46087;BME280;31824;49.648;8.640;2023-04-12T00:22:04;99747.16;;;10.30;100.00
46087;BME280;31824;49.648;8.640;2023-04-12T00:25:07;99737.69;;;10.22;100.00
46087;BME280;31824;49.648;8.640;2023-04-12T00:28:10;99739.28;;;10.20;100.00
46087;BME280;31824;49.648;8.640;2023-04-12T00:31:12;99728.50;;;10.07;100.00
46087;BME280;31824;49.648;8.640;2023-04-12T00:34:14;99724.84;;;9.94;100.00
46087;BME280;31824;49.648;8.640;2023-04-12T00:37:17;99719.59;;;9.94;100.00
46087;BME280;31824;49.648;8.640;2023-04-12T00:40:20;99720.22;;;9.92;100.00
46087;BME280;31824;49.648;8.640;2023-04-12T00:43:23;99709.44;;;9.78;100.00
46087;BME280;31824;49.648;8.640;2023-04-12T00:46:28;99713.22;;;9.72;100.00
46087;BME280;31824;49.648;8.640;2023-04-12T00:49:30;99711.69;;;9.74;100.00
46087;BME280;31824;49.648;8.640;2023-04-12T00:52:34;99697.72;;;9.54;100.00
46087;BME280;31824;49.648;8.640;2023-04-12T00:55:39;99698.88;;;9.48;100.00
46087;BME280;31824;49.648;8.640;2023-04-12T00:58:41;99701.78;;;9.51;100.00
46087;BME280;31824;49.648;8.640;2023-04-12T01:01:43;99697.69;;;9.44;100.00
46087;BME280;31824;49.648;8.640;2023-04-12T01:04:46;99702.00;;;9.33;100.00
46087;BME280;31824;49.648;8.640;2023-04-12T01:07:57;99701.94;;;9.23;100.00
46087;BME280;31824;49.648;8.640;2023-04-12T01:11:14;99698.63;;;9.15;100.00
46087;BME280;31824;49.648;8.640;2023-04-12T01:14:24;99688.13;;;9.05;100.00
46087;BME280;31824;49.648;8.640;2023-04-12T01:17:31;99687.91;;;8.93;100.00
46087;BME280;31824;49.648;8.640;2023-04-12T01:20:41;99683.38;;;9.01;100.00
46087;BME280;31824;49.648;8.640;2023-04-12T01:24:02;99686.78;;;9.00;100.00
46087;BME280;31824;49.648;8.640;2023-04-12T01:27:38;99680.28;;;8.86;100.00
46087;BME280;31824;49.648;8.640;2023-04-12T01:30:45;99678.94;;;8.81;100.00
46087;BME280;31824;49.648;8.640;2023-04-12T01:33:49;99670.94;;;8.79;100.00
46087;BME280;31824;49.648;8.640;2023-04-12T01:36:56;99664.38;;;8.74;100.00
46087;BME280;31824;49.648;8.640;2023-04-12T01:39:59;99665.09;;;8.63;100.00
46087;BME280;31824;49.648;8.640;2023-04-12T01:43:07;99657.66;;;8.67;100.00
46087;BME280;31824;49.648;8.640;2023-04-12T01:46:09;99664.66;;;8.58;100.00
46087;BME280;31824;49.648;8.640;2023-04-12T01:49:12;99658.75;;;8.50;100.00
46087;BME280;31824;49.648;8.640;2023-04-12T01:52:18;99649.38;;;8.43;100.00
46087;BME280;31824;49.648;8.640;2023-04-12T01:55:24;99646.63;;;8.42;100.00
46087;BME280;31824;49.648;8.640;2023-04-12T01:58:30;99645.13;;;8.35;100.00
46087;BME280;31824;49.648;8.640;2023-04-12T02:01:32;99634.81;;;8.37;100.00
46087;BME280;31824;49.648;8.640;2023-04-12T02:04:35;99623.50;;;8.27;100.00
46087;BME280;31824;49.648;8.640;2023-04-12T02:07:38;99615.38;;;8.24;100.00
46087;BME280;31824;49.648;8.640;2023-04-12T02:10:41;99618.47;;;8.20;100.00
46087;BME280;31824;49.648;8.640;2023-04-12T02:13:44;99602.91;;;8.22;100.00
46087;BME280;31824;49.648;8.640;2023-04-12T02:16:46;99589.25;;;8.16;100.00
46087;BME280;31824;49.648;8.640;2023-04-12T02:19:48;99593.59;;;8.15;100.00
46087;BME280;31824;49.648;8.640;2023-04-12T02:22:52;99580.09;;;8.10;100.00
46087;BME280;31824;49.648;8.640;2023-04-12T02:25:55;99580.38;;;8.14;100.00
46087;BME280;31824;49.648;8.640;2023-04-12T02:28:58;99581.13;;;8.13;100.00
46087;BME280;31824;49.648;8.640;2023-04-12T02:32:03;99576.97;;;8.15;100.00
46087;BME280;31824;49.648;8.640;2023-04-12T02:35:06;99578.78;;;8.16;100.00
46087;BME280;31824;49.648;8.640;2023-04-12T02:38:09;99570.81;;;8.14;100.00
46087;BME280;31824;49.648;8.640;2023-04-12T02:41:16;99558.84;;;8.07;100.00
46087;BME280;31824;49.648;8.640;2023-04-12T02:44:19;99555.59;;;8.10;100.00
46087;BME280;31824;49.648;8.640;2023-04-12T02:47:39;99550.50;;;8.11;100.00
46087;BME280;31824;49.648;8.640;2023-04-12T02:50:44;99548.69;;;8.10;100.00
46087;BME280;31824;49.648;8.640;2023-04-12T02:53:49;99534.03;;;8.13;100.00
46087;BME280;31824;49.648;8.640;2023-04-12T02:56:57;99532.69;;;8.07;100.00
46087;BME280;31824;49.648;8.640;2023-04-12T03:00:11;99527.91;;;8.12;100.00
46087;BME280;31824;49.648;8.640;2023-04-12T03:03:25;99514.81;;;8.12;100.00
46087;BME280;31824;49.648;8.640;2023-04-12T03:06:32;99503.72;;;8.15;100.00
46087;BME280;31824;49.648;8.640;2023-04-12T03:09:35;99501.25;;;8.16;100.00
46087;BME280;31824;49.648;8.640;2023-04-12T03:12:39;99497.06;;;8.18;100.00
46087;BME280;31824;49.648;8.640;2023-04-12T03:15:54;99498.25;;;8.22;100.00
46087;BME280;31824;49.648;8.640;2023-04-12T03:19:00;99493.44;;;8.26;100.00
46087;BME280;31824;49.648;8.640;2023-04-12T03:22:02;99494.63;;;8.30;100.00
46087;BME280;31824;49.648;8.640;2023-04-12T03:25:08;99486.66;;;8.28;100.00
46087;BME280;31824;49.648;8.640;2023-04-12T03:28:14;99490.16;;;8.29;100.00
46087;BME280;31824;49.648;8.640;2023-04-12T03:31:22;99486.72;;;8.20;100.00
46087;BME280;31824;49.648;8.640;2023-04-12T03:34:25;99469.59;;;8.23;100.00
46087;BME280;31824;49.648;8.640;2023-04-12T03:37:28;99465.28;;;8.24;100.00
46087;BME280;31824;49.648;8.640;2023-04-12T03:40:31;99448.13;;;8.17;100.00
46087;BME280;31824;49.648;8.640;2023-04-12T03:43:33;99437.97;;;8.31;100.00
46087;BME280;31824;49.648;8.640;2023-04-12T03:46:42;99440.81;;;8.23;100.00
46087;BME280;31824;49.648;8.640;2023-04-12T03:49:45;99429.97;;;8.29;100.00
46087;BME280;31824;49.648;8.640;2023-04-12T03:53:09;99414.53;;;8.32;100.00
46087;BME280;31824;49.648;8.640;2023-04-12T03:56:13;99413.91;;;8.35;100.00
46087;BME280;31824;49.648;8.640;2023-04-12T03:59:18;99399.53;;;8.30;100.00
46087;BME280;31824;49.648;8.640;2023-04-12T04:02:25;99391.75;;;8.21;100.00
46087;BME280;31824;49.648;8.640;2023-04-12T04:05:31;99384.72;;;8.30;100.00
46087;BME280;31824;49.648;8.640;2023-04-12T04:08:34;99391.06;;;8.13;100.00
46087;BME280;31824;49.648;8.640;2023-04-12T04:11:38;99385.03;;;8.04;100.00
46087;BME280;31824;49.648;8.640;2023-04-12T04:14:59;99368.94;;;7.99;100.00
46087;BME280;31824;49.648;8.640;2023-04-12T04:18:06;99360.34;;;8.10;100.00
46087;BME280;31824;49.648;8.640;2023-04-12T04:21:08;99361.53;;;8.14;100.00
46087;BME280;31824;49.648;8.640;2023-04-12T04:24:10;99351.38;;;7.98;100.00
46087;BME280;31824;49.648;8.640;2023-04-12T04:27:19;99345.94;;;8.05;100.00
46087;BME280;31824;49.648;8.640;2023-04-12T04:30:27;99334.03;;;7.99;100.00
46087;BME280;31824;49.648;8.640;2023-04-12T04:33:30;99323.31;;;7.96;100.00
46087;BME280;31824;49.648;8.640;2023-04-12T04:36:36;99316.88;;;7.92;100.00
46087;BME280;31824;49.648;8.640;2023-04-12T04:39:39;99311.09;;;7.86;100.00
46087;BME280;31824;49.648;8.640;2023-04-12T04:42:44;99309.53;;;7.88;100.00
46087;BME280;31824;49.648;8.640;2023-04-12T04:45:47;99300.75;;;7.87;100.00
46087;BME280;31824;49.648;8.640;2023-04-12T04:48:56;99296.19;;;7.85;100.00
46087;BME280;31824;49.648;8.640;2023-04-12T04:51:59;99278.25;;;7.79;100.00
46087;BME280;31824;49.648;8.640;2023-04-12T04:55:01;99289.09;;;7.73;100.00
46087;BME280;31824;49.648;8.640;2023-04-12T04:58:10;99284.91;;;7.75;100.00
46087;BME280;31824;49.648;8.640;2023-04-12T05:01:15;99290.97;;;7.85;100.00
46087;BME280;31824;49.648;8.640;2023-04-12T05:04:22;99285.88;;;7.86;100.00
46087;BME280;31824;49.648;8.640;2023-04-12T05:07:24;99273.56;;;7.85;100.00
46087;BME280;31824;49.648;8.640;2023-04-12T05:10:26;99272.94;;;7.88;100.00
46087;BME280;31824;49.648;8.640;2023-04-12T05:13:28;99275.94;;;7.82;100.00
46087;BME280;31824;49.648;8.640;2023-04-12T05:16:33;99261.00;;;7.81;100.00
46087;BME280;31824;49.648;8.640;2023-04-12T05:19:37;99253.84;;;7.89;100.00
46087;BME280;31824;49.648;8.640;2023-04-12T05:22:40;99254.59;;;7.77;100.00
46087;BME280;31824;49.648;8.640;2023-04-12T05:25:44;99246.88;;;7.79;100.00
46087;BME280;31824;49.648;8.640;2023-04-12T05:29:03;99235.25;;;7.75;100.00
46087;BME280;31824;49.648;8.640;2023-04-12T05:32:06;99246.53;;;7.85;100.00
46087;BME280;31824;49.648;8.640;2023-04-12T05:35:12;99242.44;;;7.88;100.00
46087;BME280;31824;49.648;8.640;2023-04-12T05:38:16;99235.03;;;7.93;100.00
46087;BME280;31824;49.648;8.640;2023-04-12T05:41:20;99234.25;;;8.04;100.00
46087;BME280;31824;49.648;8.640;2023-04-12T05:44:23;99220.09;;;8.02;100.00
46087;BME280;31824;49.648;8.640;2023-04-12T05:47:25;99221.69;;;8.00;100.00
46087;BME280;31824;49.648;8.640;2023-04-12T05:50:31;99218.41;;;7.92;100.00
46087;BME280;31824;49.648;8.640;2023-04-12T05:53:33;99197.38;;;8.01;100.00
46087;BME280;31824;49.648;8.640;2023-04-12T05:56:38;99187.81;;;8.02;100.00
46087;BME280;31824;49.648;8.640;2023-04-12T05:59:40;99180.88;;;8.02;100.00
46087;BME280;31824;49.648;8.640;2023-04-12T06:02:43;99174.88;;;8.03;100.00
46087;BME280;31824;49.648;8.640;2023-04-12T06:05:47;99160.38;;;8.07;100.00
46087;BME280;31824;49.648;8.640;2023-04-12T06:08:49;99158.41;;;8.04;100.00
46087;BME280;31824;49.648;8.640;2023-04-12T06:11:51;99147.66;;;8.11;100.00
46087;BME280;31824;49.648;8.640;2023-04-12T06:14:53;99140.88;;;8.14;100.00
46087;BME280;31824;49.648;8.640;2023-04-12T06:17:56;99134.72;;;8.13;100.00
46087;BME280;31824;49.648;8.640;2023-04-12T06:21:01;99127.41;;;8.30;100.00
46087;BME280;31824;49.648;8.640;2023-04-12T06:24:05;99128.31;;;8.20;100.00
46087;BME280;31824;49.648;8.640;2023-04-12T06:27:07;99126.47;;;8.29;100.00
46087;BME280;31824;49.648;8.640;2023-04-12T06:30:10;99110.41;;;8.24;100.00
46087;BME280;31824;49.648;8.640;2023-04-12T06:33:13;99112.88;;;8.23;100.00
46087;BME280;31824;49.648;8.640;2023-04-12T06:36:19;99117.06;;;8.31;100.00
46087;BME280;31824;49.648;8.640;2023-04-12T06:39:21;99113.63;;;8.32;100.00
46087;BME280;31824;49.648;8.640;2023-04-12T06:42:23;99109.56;;;8.36;100.00
46087;BME280;31824;49.648;8.640;2023-04-12T06:45:29;99100.03;;;8.47;100.00
46087;BME280;31824;49.648;8.640;2023-04-12T06:48:31;99096.59;;;8.58;100.00
46087;BME280;31824;49.648;8.640;2023-04-12T06:51:34;99093.31;;;8.60;100.00
46087;BME280;31824;49.648;8.640;2023-04-12T06:54:38;99083.50;;;8.58;100.00
46087;BME280;31824;49.648;8.640;2023-04-12T06:57:40;99068.84;;;8.60;100.00
46087;BME280;31824;49.648;8.640;2023-04-12T07:00:42;99061.75;;;8.69;100.00
46087;BME280;31824;49.648;8.640;2023-04-12T07:03:44;99065.78;;;8.76;100.00
46087;BME280;31824;49.648;8.640;2023-04-12T07:06:48;99061.69;;;8.79;100.00
46087;BME280;31824;49.648;8.640;2023-04-12T07:09:50;99061.34;;;8.97;100.00
46087;BME280;31824;49.648;8.640;2023-04-12T07:12:52;99071.94;;;8.99;100.00
46087;BME280;31824;49.648;8.640;2023-04-12T07:15:54;99071.63;;;8.84;100.00
46087;BME280;31824;49.648;8.640;2023-04-12T07:18:58;99061.00;;;8.92;100.00
46087;BME280;31824;49.648;8.640;2023-04-12T07:22:01;99059.59;;;9.08;100.00
46087;BME280;31824;49.648;8.640;2023-04-12T07:25:04;99025.97;;;9.02;100.00
46087;BME280;31824;49.648;8.640;2023-04-12T07:28:10;99029.19;;;9.32;100.00
46087;BME280;31824;49.648;8.640;2023-04-12T07:31:12;99020.25;;;9.30;100.00
46087;BME280;31824;49.648;8.640;2023-04-12T07:34:14;99015.06;;;9.42;100.00
46087;BME280;31824;49.648;8.640;2023-04-12T07:37:18;98997.38;;;9.27;100.00
46087;BME280;31824;49.648;8.640;2023-04-12T07:40:20;98990.84;;;9.56;100.00
46087;BME280;31824;49.648;8.640;2023-04-12T07:43:22;98984.38;;;9.63;100.00
46087;BME280;31824;49.648;8.640;2023-04-12T07:46:24;98975.91;;;9.55;100.00
46087;BME280;31824;49.648;8.640;2023-04-12T07:49:26;98971.50;;;9.66;100.00
46087;BME280;31824;49.648;8.640;2023-04-12T07:52:31;98965.78;;;9.72;100.00
46087;BME280;31824;49.648;8.640;2023-04-12T07:55:33;98957.34;;;9.64;100.00
46087;BME280;31824;49.648;8.640;2023-04-12T07:58:35;98949.84;;;9.69;100.00
46087;BME280;31824;49.648;8.640;2023-04-12T08:01:37;98949.84;;;9.69;100.00
46087;BME280;31824;49.648;8.640;2023-04-12T08:04:39;98941.16;;;9.58;100.00
46087;BME280;31824;49.648;8.640;2023-04-12T08:07:46;98937.19;;;9.63;100.00
46087;BME280;31824;49.648;8.640;2023-04-12T08:10:48;98928.84;;;9.69;100.00
46087;BME280;31824;49.648;8.640;2023-04-12T08:13:51;98923.84;;;9.84;100.00
46087;BME280;31824;49.648;8.640;2023-04-12T08:16:54;98933.28;;;9.82;100.00
46087;BME280;31824;49.648;8.640;2023-04-12T08:19:56;98926.91;;;9.90;100.00
46087;BME280;31824;49.648;8.640;2023-04-12T08:22:59;98914.47;;;9.99;100.00
46087;BME280;31824;49.648;8.640;2023-04-12T08:26:01;98927.13;;;10.17;100.00
46087;BME280;31824;49.648;8.640;2023-04-12T08:29:04;98921.66;;;10.13;100.00
46087;BME280;31824;49.648;8.640;2023-04-12T08:32:06;98920.06;;;10.16;100.00
46087;BME280;31824;49.648;8.640;2023-04-12T08:35:10;98928.50;;;10.11;100.00
46087;BME280;31824;49.648;8.640;2023-04-12T08:38:14;98924.28;;;10.13;100.00
46087;BME280;31824;49.648;8.640;2023-04-12T08:41:17;98921.88;;;10.17;100.00
46087;BME280;31824;49.648;8.640;2023-04-12T08:44:32;98915.94;;;10.31;100.00
46087;BME280;31824;49.648;8.640;2023-04-12T08:47:36;98917.19;;;10.36;100.00
46087;BME280;31824;49.648;8.640;2023-04-12T08:50:41;98926.31;;;10.41;100.00
46087;BME280;31824;49.648;8.640;2023-04-12T08:53:47;98926.19;;;10.28;100.00
46087;BME280;31824;49.648;8.640;2023-04-12T08:56:49;98916.97;;;10.21;100.00
46087;BME280;31824;49.648;8.640;2023-04-12T08:59:52;98923.94;;;10.33;100.00
46087;BME280;31824;49.648;8.640;2023-04-12T09:02:55;98921.53;;;10.24;100.00
46087;BME280;31824;49.648;8.640;2023-04-12T09:06:01;98913.31;;;10.31;100.00
46087;BME280;31824;49.648;8.640;2023-04-12T09:09:05;98911.44;;;10.54;100.00
46087;BME280;31824;49.648;8.640;2023-04-12T09:12:09;98900.59;;;10.61;100.00
46087;BME280;31824;49.648;8.640;2023-04-12T09:15:12;98902.31;;;10.60;100.00
46087;BME280;31824;49.648;8.640;2023-04-12T09:18:14;98891.97;;;10.50;100.00
46087;BME280;31824;49.648;8.640;2023-04-12T09:21:18;98892.53;;;10.34;100.00
46087;BME280;31824;49.648;8.640;2023-04-12T09:24:21;98885.47;;;10.45;100.00
46087;BME280;31824;49.648;8.640;2023-04-12T09:27:26;98885.84;;;10.63;100.00
46087;BME280;31824;49.648;8.640;2023-04-12T09:30:40;98870.44;;;10.68;100.00
46087;BME280;31824;49.648;8.640;2023-04-12T09:33:42;98868.72;;;10.68;100.00
46087;BME280;31824;49.648;8.640;2023-04-12T09:36:44;98849.59;;;10.96;100.00
46087;BME280;31824;49.648;8.640;2023-04-12T09:39:58;98841.25;;;11.02;100.00
46087;BME280;31824;49.648;8.640;2023-04-12T09:43:00;98836.25;;;10.93;100.00
46087;BME280;31824;49.648;8.640;2023-04-12T09:46:08;98839.22;;;10.97;100.00
46087;BME280;31824;49.648;8.640;2023-04-12T09:49:11;98840.78;;;10.82;100.00
46087;BME280;31824;49.648;8.640;2023-04-12T09:52:13;98845.06;;;10.68;100.00
46087;BME280;31824;49.648;8.640;2023-04-12T09:55:20;98836.16;;;10.66;100.00
46087;BME280;31824;49.648;8.640;2023-04-12T09:58:23;98838.94;;;10.68;100.00
46087;BME280;31824;49.648;8.640;2023-04-12T10:01:26;98827.53;;;10.80;100.00
46087;BME280;31824;49.648;8.640;2023-04-12T10:04:29;98835.84;;;10.87;100.00
46087;BME280;31824;49.648;8.640;2023-04-12T10:07:34;98832.75;;;10.92;100.00
46087;BME280;31824;49.648;8.640;2023-04-12T10:10:38;98831.34;;;10.97;100.00
46087;BME280;31824;49.648;8.640;2023-04-12T10:13:41;98821.72;;;10.98;100.00
46087;BME280;31824;49.648;8.640;2023-04-12T10:16:44;98825.97;;;10.96;100.00
46087;BME280;31824;49.648;8.640;2023-04-12T10:19:47;98824.31;;;10.85;100.00
46087;BME280;31824;49.648;8.640;2023-04-12T10:22:51;98820.31;;;10.90;100.00
46087;BME280;31824;49.648;8.640;2023-04-12T10:25:57;98823.78;;;10.77;100.00
46087;BME280;31824;49.648;8.640;2023-04-12T10:29:23;98807.88;;;10.87;100.00
46087;BME280;31824;49.648;8.640;2023-04-12T10:32:26;98809.34;;;10.84;100.00
46087;BME280;31824;49.648;8.640;2023-04-12T10:35:51;98808.75;;;10.88;100.00
46087;BME280;31824;49.648;8.640;2023-04-12T10:39:07;98797.91;;;11.08;100.00
46087;BME280;31824;49.648;8.640;2023-04-12T10:42:20;98803.59;;;11.28;100.00
46087;BME280;31824;49.648;8.640;2023-04-12T10:45:35;98800.53;;;11.22;100.00
46087;BME280;31824;49.648;8.640;2023-04-12T10:48:39;98792.16;;;11.41;100.00
46087;BME280;31824;49.648;8.640;2023-04-12T10:52:12;98786.38;;;11.60;100.00
46087;BME280;31824;49.648;8.640;2023-04-12T10:55:26;98790.66;;;11.85;100.00
46087;BME280;31824;49.648;8.640;2023-04-12T10:58:55;98791.44;;;12.10;100.00
46087;BME280;31824;49.648;8.640;2023-04-12T11:02:18;98780.28;;;12.14;100.00
46087;BME280;31824;49.648;8.640;2023-04-12T11:05:25;98787.50;;;11.90;100.00
46087;BME280;31824;49.648;8.640;2023-04-12T11:08:38;98776.09;;;11.76;100.00
46087;BME280;31824;49.648;8.640;2023-04-12T11:11:57;98778.13;;;11.67;100.00
46087;BME280;31824;49.648;8.640;2023-04-12T11:15:02;98777.09;;;11.65;100.00
46087;BME280;31824;49.648;8.640;2023-04-12T11:18:15;98774.69;;;11.41;100.00
46087;BME280;31824;49.648;8.640;2023-04-12T11:21:17;98782.75;;;11.44;100.00
46087;BME280;31824;49.648;8.640;2023-04-12T11:24:21;98773.16;;;11.45;100.00
46087;BME280;31824;49.648;8.640;2023-04-12T11:27:25;98774.28;;;11.48;100.00
46087;BME280;31824;49.648;8.640;2023-04-12T11:30:28;98766.28;;;11.47;100.00
46087;BME280;31824;49.648;8.640;2023-04-12T11:33:34;98761.81;;;11.59;100.00
46087;BME280;31824;49.648;8.640;2023-04-12T11:36:37;98755.13;;;11.78;100.00
46087;BME280;31824;49.648;8.640;2023-04-12T11:39:41;98762.19;;;11.79;100.00
46087;BME280;31824;49.648;8.640;2023-04-12T11:42:43;98755.22;;;11.93;100.00
46087;BME280;31824;49.648;8.640;2023-04-12T11:45:46;98756.22;;;11.95;100.00
46087;BME280;31824;49.648;8.640;2023-04-12T11:48:49;98755.03;;;11.76;100.00
46087;BME280;31824;49.648;8.640;2023-04-12T11:52:00;98752.78;;;11.82;100.00
46087;BME280;31824;49.648;8.640;2023-04-12T11:55:05;98746.63;;;11.95;100.00
46087;BME280;31824;49.648;8.640;2023-04-12T11:58:09;98749.34;;;11.97;100.00
46087;BME280;31824;49.648;8.640;2023-04-12T12:01:14;98737.09;;;11.97;100.00
46087;BME280;31824;49.648;8.640;2023-04-12T12:04:17;98738.59;;;12.07;100.00
46087;BME280;31824;49.648;8.640;2023-04-12T12:07:21;98738.34;;;12.18;100.00
46087;BME280;31824;49.648;8.640;2023-04-12T12:10:23;98732.34;;;12.48;100.00
46087;BME280;31824;49.648;8.640;2023-04-12T12:13:45;98714.97;;;12.37;100.00
46087;BME280;31824;49.648;8.640;2023-04-12T12:16:53;98717.16;;;12.29;100.00
46087;BME280;31824;49.648;8.640;2023-04-12T12:19:56;98728.59;;;12.30;100.00
46087;BME280;31824;49.648;8.640;2023-04-12T12:22:58;98727.88;;;12.32;100.00
46087;BME280;31824;49.648;8.640;2023-04-12T12:26:01;98722.63;;;12.47;100.00
46087;BME280;31824;49.648;8.640;2023-04-12T12:29:19;98712.84;;;12.60;100.00
46087;BME280;31824;49.648;8.640;2023-04-12T12:32:24;98721.38;;;12.56;100.00
46087;BME280;31824;49.648;8.640;2023-04-12T12:35:26;98722.19;;;12.55;100.00
46087;BME280;31824;49.648;8.640;2023-04-12T12:38:33;98719.63;;;12.56;100.00
46087;BME280;31824;49.648;8.640;2023-04-12T12:41:38;98718.22;;;12.33;100.00
46087;BME280;31824;49.648;8.640;2023-04-12T12:44:41;98717.44;;;12.34;100.00
46087;BME280;31824;49.648;8.640;2023-04-12T12:47:51;98713.72;;;12.45;100.00
46087;BME280;31824;49.648;8.640;2023-04-12T12:50:53;98718.56;;;12.68;100.00
46087;BME280;31824;49.648;8.640;2023-04-12T12:53:55;98709.41;;;12.61;100.00
46087;BME280;31824;49.648;8.640;2023-04-12T12:56:58;98709.63;;;12.50;100.00
46087;BME280;31824;49.648;8.640;2023-04-12T13:00:00;98704.28;;;12.49;100.00
46087;BME280;31824;49.648;8.640;2023-04-12T13:03:03;98704.09;;;12.46;100.00
46087;BME280;31824;49.648;8.640;2023-04-12T13:06:06;98704.66;;;12.40;100.00
46087;BME280;31824;49.648;8.640;2023-04-12T13:09:09;98707.69;;;12.33;100.00
46087;BME280;31824;49.648;8.640;2023-04-12T13:12:12;98708.81;;;12.08;100.00
46087;BME280;31824;49.648;8.640;2023-04-12T13:15:16;98707.53;;;11.88;100.00
46087;BME280;31824;49.648;8.640;2023-04-12T13:18:26;98702.69;;;11.94;100.00
46087;BME280;31824;49.648;8.640;2023-04-12T13:21:28;98702.97;;;11.99;100.00
46087;BME280;31824;49.648;8.640;2023-04-12T13:24:30;98703.19;;;11.89;100.00
46087;BME280;31824;49.648;8.640;2023-04-12T13:27:31;98690.53;;;11.96;100.00
46087;BME280;31824;49.648;8.640;2023-04-12T13:30:33;98686.56;;;11.90;100.00
46087;BME280;31824;49.648;8.640;2023-04-12T13:33:37;98681.75;;;11.96;100.00
46087;BME280;31824;49.648;8.640;2023-04-12T13:36:38;98677.88;;;11.91;100.00
46087;BME280;31824;49.648;8.640;2023-04-12T13:39:46;98668.94;;;12.02;100.00
46087;BME280;31824;49.648;8.640;2023-04-12T13:42:48;98663.63;;;12.15;100.00
46087;BME280;31824;49.648;8.640;2023-04-12T13:45:51;98651.94;;;12.10;100.00
46087;BME280;31824;49.648;8.640;2023-04-12T13:48:55;98661.50;;;11.95;100.00
46087;BME280;31824;49.648;8.640;2023-04-12T13:51:57;98685.78;;;11.91;100.00
46087;BME280;31824;49.648;8.640;2023-04-12T13:54:58;98679.13;;;11.96;100.00
46087;BME280;31824;49.648;8.640;2023-04-12T13:58:00;98680.94;;;11.83;100.00
46087;BME280;31824;49.648;8.640;2023-04-12T14:01:09;98675.50;;;11.80;100.00
46087;BME280;31824;49.648;8.640;2023-04-12T14:04:12;98686.91;;;11.94;100.00
46087;BME280;31824;49.648;8.640;2023-04-12T14:07:13;98686.97;;;12.09;100.00
46087;BME280;31824;49.648;8.640;2023-04-12T14:10:15;98696.28;;;12.47;100.00
46087;BME280;31824;49.648;8.640;2023-04-12T14:13:18;98702.28;;;12.60;100.00
46087;BME280;31824;49.648;8.640;2023-04-12T14:16:40;98704.13;;;12.61;100.00
46087;BME280;31824;49.648;8.640;2023-04-12T14:19:44;98701.25;;;12.43;100.00
46087;BME280;31824;49.648;8.640;2023-04-12T14:22:46;98700.97;;;12.23;100.00
46087;BME280;31824;49.648;8.640;2023-04-12T14:25:48;98697.00;;;12.30;100.00
46087;BME280;31824;49.648;8.640;2023-04-12T14:28:50;98696.81;;;12.27;100.00
46087;BME280;31824;49.648;8.640;2023-04-12T14:31:52;98693.34;;;12.28;100.00
46087;BME280;31824;49.648;8.640;2023-04-12T14:34:55;98697.53;;;12.24;100.00
46087;BME280;31824;49.648;8.640;2023-04-12T14:40:05;98714.03;;;12.22;100.00
46087;BME280;31824;49.648;8.640;2023-04-12T14:43:08;98707.88;;;12.21;100.00
46087;BME280;31824;49.648;8.640;2023-04-12T14:46:10;98690.25;;;12.20;100.00
46087;BME280;31824;49.648;8.640;2023-04-12T14:49:13;98696.25;;;12.18;100.00
46087;BME280;31824;49.648;8.640;2023-04-12T14:52:15;98708.81;;;12.08;100.00
46087;BME280;31824;49.648;8.640;2023-04-12T14:55:18;98712.78;;;12.02;100.00
46087;BME280;31824;49.648;8.640;2023-04-12T14:58:20;98707.84;;;12.06;100.00
46087;BME280;31824;49.648;8.640;2023-04-12T15:01:24;98712.88;;;12.03;100.00
46087;BME280;31824;49.648;8.640;2023-04-12T15:04:26;98718.44;;;12.08;100.00
46087;BME280;31824;49.648;8.640;2023-04-12T15:07:32;98725.72;;;12.12;100.00
46087;BME280;31824;49.648;8.640;2023-04-12T15:10:35;98735.22;;;12.10;100.00
46087;BME280;31824;49.648;8.640;2023-04-12T15:13:38;98737.69;;;12.07;100.00
46087;BME280;31824;49.648;8.640;2023-04-12T15:16:40;98740.22;;;12.05;100.00
46087;BME280;31824;49.648;8.640;2023-04-12T15:19:44;98773.50;;;12.05;100.00
46087;BME280;31824;49.648;8.640;2023-04-12T15:22:46;98770.78;;;12.03;100.00
46087;BME280;31824;49.648;8.640;2023-04-12T15:25:57;98755.25;;;12.21;100.00
46087;BME280;31824;49.648;8.640;2023-04-12T15:28:59;98753.34;;;12.19;100.00
46087;BME280;31824;49.648;8.640;2023-04-12T15:32:01;98767.06;;;12.28;100.00
46087;BME280;31824;49.648;8.640;2023-04-12T15:35:04;98764.41;;;12.28;100.00
46087;BME280;31824;49.648;8.640;2023-04-12T15:38:26;98764.47;;;12.43;100.00
46087;BME280;31824;49.648;8.640;2023-04-12T15:41:34;98765.81;;;12.36;100.00
46087;BME280;31824;49.648;8.640;2023-04-12T15:44:39;98768.16;;;12.31;100.00
46087;BME280;31824;49.648;8.640;2023-04-12T15:47:43;98760.06;;;12.57;100.00
46087;BME280;31824;49.648;8.640;2023-04-12T15:50:46;98757.06;;;12.65;100.00
46087;BME280;31824;49.648;8.640;2023-04-12T15:53:49;98763.72;;;12.89;100.00
46087;BME280;31824;49.648;8.640;2023-04-12T15:56:52;98755.03;;;13.81;100.00
46087;BME280;31824;49.648;8.640;2023-04-12T15:59:55;98748.03;;;13.98;100.00
46087;BME280;31824;49.648;8.640;2023-04-12T16:03:00;98755.06;;;16.62;100.00
46087;BME280;31824;49.648;8.640;2023-04-12T16:06:02;98736.59;;;15.32;100.00
46087;BME280;31824;49.648;8.640;2023-04-12T16:09:04;98745.53;;;14.32;100.00
46087;BME280;31824;49.648;8.640;2023-04-12T16:12:08;98727.38;;;13.74;100.00
46087;BME280;31824;49.648;8.640;2023-04-12T16:15:10;98733.34;;;13.87;100.00